Time;durP1;ratioP1;P1;durP2;ratioP2;P2;SDS_P1;SDS_P2;PMS_P1;PMS_P2;Temp;Humidity;BMP_temperature;BMP_pressure;BME280_temperature;BME280_humidity;BME280_pressure;Samples;Min_cycle;Max_cycle;Signal;HPM_P1;HPM_P2
2022/03/04 00:00:59;;;;;;;13.07;8.67;;;;;;;4.85;86.01;95959.00;5016898;28;20217;-87
2022/03/04 00:03:27;;;;;;;14.20;8.13;;;;;;;4.84;86.60;95955.53;5034041;27;20214;-86
2022/03/04 00:05:54;;;;;;;13.93;8.10;;;;;;;4.86;86.84;95960.66;5021078;28;20207;-88
2022/03/04 00:08:23;;;;;;;14.10;8.40;;;;;;;4.85;86.80;95962.50;5016107;28;20309;-88
2022/03/04 00:10:51;;;;;;;13.87;8.67;;;;;;;4.85;86.84;95962.50;5018262;28;20211;-87
2022/03/04 00:13:18;;;;;;;15.00;8.67;;;;;;;4.76;87.20;95970.97;5014941;28;20226;-87
2022/03/04 00:15:45;;;;;;;16.30;8.37;;;;;;;4.69;87.91;95959.41;5024850;28;20225;-86
2022/03/04 00:18:12;;;;;;;15.13;8.60;;;;;;;4.70;88.62;95969.06;5015468;28;20589;-87
2022/03/04 00:20:39;;;;;;;15.23;8.47;;;;;;;4.68;87.77;95957.78;5012330;28;20207;-87
2022/03/04 00:23:07;;;;;;;14.27;9.07;;;;;;;4.69;88.16;95962.06;5016792;28;20233;-87
2022/03/04 00:25:35;;;;;;;14.90;8.23;;;;;;;4.73;87.32;95974.84;5018115;28;20376;-88
2022/03/04 00:28:03;;;;;;;14.97;8.87;;;;;;;4.67;88.07;95975.69;5029772;27;20230;-87
2022/03/04 00:30:30;;;;;;;11.37;7.77;;;;;;;4.65;88.01;95974.22;5007112;28;20271;-87
2022/03/04 00:32:57;;;;;;;13.17;8.20;;;;;;;4.64;88.46;95978.75;5017195;28;20205;-87
2022/03/04 00:35:25;;;;;;;13.67;7.77;;;;;;;4.63;88.50;95970.91;5024959;28;20207;-87
2022/03/04 00:37:52;;;;;;;13.87;8.43;;;;;;;4.58;89.38;95984.91;5017821;27;20238;-86
2022/03/04 00:40:20;;;;;;;13.80;8.20;;;;;;;4.51;89.86;95982.19;5019852;28;20218;-86
2022/03/04 00:42:48;;;;;;;14.17;8.30;;;;;;;4.48;89.51;95979.94;5038130;28;20214;-86
2022/03/04 00:45:15;;;;;;;13.93;8.77;;;;;;;4.50;90.48;95985.09;5022154;28;20211;-87
2022/03/04 00:47:42;;;;;;;13.00;8.07;;;;;;;4.43;91.60;95982.38;5012432;27;20282;-87
2022/03/04 00:50:10;;;;;;;14.00;8.40;;;;;;;4.48;91.52;95985.28;5013925;28;20209;-87
2022/03/04 00:52:38;;;;;;;13.00;8.33;;;;;;;4.45;90.84;95983.00;5015922;28;20204;-86
2022/03/04 00:55:06;;;;;;;14.93;8.90;;;;;;;4.42;91.11;95986.06;5018150;28;20286;-87
2022/03/04 00:57:33;;;;;;;14.10;8.87;;;;;;;4.33;91.93;95984.63;5026710;28;20210;-87
2022/03/04 01:00:02;;;;;;;14.60;8.23;;;;;;;4.27;93.03;95990.75;5024332;28;20203;-86
2022/03/04 01:02:29;;;;;;;14.43;8.37;;;;;;;4.25;92.75;95984.81;5036523;27;20213;-86
2022/03/04 01:04:56;;;;;;;16.77;8.87;;;;;;;4.29;92.89;95991.38;5017007;28;20210;-86
2022/03/04 01:07:23;;;;;;;17.03;9.63;;;;;;;4.28;92.92;95989.72;5039599;27;20305;-88
2022/03/04 01:09:50;;;;;;;15.47;9.23;;;;;;;4.27;93.60;95984.56;5017060;28;20234;-86
2022/03/04 01:12:17;;;;;;;17.10;9.50;;;;;;;4.21;93.67;95986.22;5011531;28;20230;-87
2022/03/04 01:14:44;;;;;;;21.87;9.43;;;;;;;4.18;93.28;95984.75;5021111;28;20228;-87
2022/03/04 01:17:13;;;;;;;15.27;9.30;;;;;;;4.10;94.39;95994.78;5016125;28;20286;-87
2022/03/04 01:19:40;;;;;;;16.97;9.53;;;;;;;3.99;95.65;95988.19;5015907;28;20233;-87
2022/03/04 01:22:07;;;;;;;17.63;9.67;;;;;;;4.09;94.88;95993.13;5017040;28;20207;-87
2022/03/04 01:24:34;;;;;;;13.47;8.60;;;;;;;3.97;95.01;95995.56;5012384;28;20280;-86
2022/03/04 01:27:03;;;;;;;17.37;9.47;;;;;;;3.96;96.56;95987.75;5010984;28;20322;-86
2022/03/04 01:29:30;;;;;;;14.97;9.53;;;;;;;4.00;95.99;95987.13;5015649;28;20360;-88
2022/03/04 01:31:57;;;;;;;17.50;9.77;;;;;;;4.07;95.86;95988.00;5023047;28;20230;-86
2022/03/04 01:34:26;;;;;;;16.43;9.33;;;;;;;4.02;96.21;95994.94;5015950;28;20293;-87
2022/03/04 01:36:54;;;;;;;17.10;10.33;;;;;;;3.95;96.08;95984.25;5014468;28;20211;-86
2022/03/04 01:39:21;;;;;;;16.63;8.80;;;;;;;3.92;96.98;95983.78;5013974;28;20234;-87
2022/03/04 01:41:48;;;;;;;16.87;9.67;;;;;;;3.91;97.71;95979.50;5013001;28;20255;-87
2022/03/04 01:44:15;;;;;;;16.63;9.37;;;;;;;3.92;96.93;95981.13;5027030;28;20201;-86
2022/03/04 01:46:43;;;;;;;16.20;9.17;;;;;;;3.86;97.00;95972.06;5014523;28;20233;-87
2022/03/04 01:49:10;;;;;;;14.90;9.37;;;;;;;3.77;96.61;95971.41;5014005;28;20210;-87
2022/03/04 01:51:38;;;;;;;15.37;8.97;;;;;;;3.74;97.03;95968.31;5014648;28;20210;-87
2022/03/04 01:54:05;;;;;;;16.90;9.60;;;;;;;3.85;96.99;95977.59;5007816;28;20252;-86
2022/03/04 01:56:32;;;;;;;16.97;9.00;;;;;;;3.90;97.02;95985.88;5034206;28;20247;-86
2022/03/04 01:59:00;;;;;;;14.30;8.93;;;;;;;3.93;97.09;95982.78;5019615;28;20221;-86
2022/03/04 02:01:27;;;;;;;14.27;8.90;;;;;;;3.94;96.50;95976.41;5018207;28;20255;-86
2022/03/04 02:03:54;;;;;;;14.63;9.17;;;;;;;4.04;96.44;95988.41;5018844;28;20252;-86
2022/03/04 02:06:21;;;;;;;15.73;9.03;;;;;;;4.05;95.22;95982.03;5010746;28;20235;-86
2022/03/04 02:08:50;;;;;;;15.77;9.50;;;;;;;4.03;95.77;95977.91;5010669;28;20230;-86
2022/03/04 02:11:17;;;;;;;16.97;9.63;;;;;;;3.90;96.69;95983.19;5015185;27;20202;-87
2022/03/04 02:13:44;;;;;;;15.83;9.77;;;;;;;3.77;97.36;95982.09;5019208;28;20211;-87
2022/03/04 02:16:19;;;;;;;15.10;9.60;;;;;;;3.74;98.33;95977.13;5011262;28;20216;-86
2022/03/04 02:18:46;;;;;;;14.77;9.20;;;;;;;3.73;98.02;95974.69;5014188;28;20210;-86
2022/03/04 02:21:15;;;;;;;15.97;9.33;;;;;;;3.62;99.35;95965.38;5023181;28;20256;-86
2022/03/04 02:23:43;;;;;;;20.30;9.03;;;;;;;3.63;98.63;95980.38;5017445;27;20260;-87
2022/03/04 02:26:10;;;;;;;13.73;8.80;;;;;;;3.55;99.47;95977.84;5020129;28;20226;-86
2022/03/04 02:28:37;;;;;;;18.80;9.57;;;;;;;3.54;100.00;95976.22;5016622;28;20228;-86
2022/03/04 02:31:05;;;;;;;16.43;10.13;;;;;;;3.47;99.54;95964.66;5008377;28;20207;-86
2022/03/04 02:33:32;;;;;;;15.67;9.67;;;;;;;3.40;100.00;95966.47;5013484;28;20302;-86
2022/03/04 02:36:00;;;;;;;15.97;9.47;;;;;;;3.44;99.91;95970.38;5017210;28;20215;-86
2022/03/04 02:38:27;;;;;;;14.73;9.53;;;;;;;3.41;100.00;95970.75;5038961;27;20238;-87
2022/03/04 02:40:55;;;;;;;14.03;9.07;;;;;;;3.42;100.00;95972.41;5016570;28;20214;-86
2022/03/04 02:43:23;;;;;;;15.87;9.73;;;;;;;3.41;100.00;95966.25;5015333;28;20297;-86
2022/03/04 02:45:52;;;;;;;17.53;9.83;;;;;;;3.38;100.00;95961.31;5029921;28;20250;-85
2022/03/04 02:48:19;;;;;;;15.13;9.20;;;;;;;3.42;100.00;95969.75;5027812;28;20215;-86
2022/03/04 02:50:47;;;;;;;15.07;9.40;;;;;;;3.30;100.00;95955.31;5012635;28;20203;-86
2022/03/04 02:53:14;;;;;;;17.13;10.30;;;;;;;3.32;100.00;95956.75;5033901;27;20283;-87
2022/03/04 02:55:41;;;;;;;16.67;9.50;;;;;;;3.41;100.00;95971.59;5013730;28;20263;-86
2022/03/04 02:58:13;;;;;;;16.30;9.90;;;;;;;3.49;100.00;95975.94;5020819;28;20210;-86
2022/03/04 03:00:40;;;;;;;17.17;10.47;;;;;;;3.46;100.00;95967.53;5014455;28;20195;-86
2022/03/04 03:03:07;;;;;;;17.00;9.83;;;;;;;3.44;100.00;95975.72;5012464;28;20345;-86
2022/03/04 03:05:34;;;;;;;17.47;9.93;;;;;;;3.39;100.00;95972.81;5028330;27;20207;-86
2022/03/04 03:08:02;;;;;;;16.20;9.30;;;;;;;3.40;100.00;95969.94;5020667;28;20250;-86
2022/03/04 03:10:31;;;;;;;16.03;9.67;;;;;;;3.41;100.00;95963.59;5015519;28;20203;-86
2022/03/04 03:12:58;;;;;;;15.47;9.20;;;;;;;3.45;100.00;95961.38;5021836;28;20202;-86
2022/03/04 03:15:27;;;;;;;16.23;10.20;;;;;;;3.49;100.00;95967.16;5017202;27;20303;-86
2022/03/04 03:17:54;;;;;;;17.47;9.53;;;;;;;3.47;100.00;95967.34;5019478;27;20305;-87
2022/03/04 03:20:22;;;;;;;15.10;9.50;;;;;;;3.55;100.00;95966.34;5018828;28;20235;-86
2022/03/04 03:22:49;;;;;;;17.80;9.57;;;;;;;3.55;100.00;95967.19;5019467;28;20207;-86
2022/03/04 03:25:16;;;;;;;20.40;10.70;;;;;;;3.50;100.00;95964.25;5017408;28;20225;-86
2022/03/04 03:27:44;;;;;;;18.27;10.37;;;;;;;3.59;100.00;95975.59;5014266;27;20233;-86
2022/03/04 03:30:12;;;;;;;15.83;9.50;;;;;;;3.54;100.00;95976.22;5018545;27;20207;-87
2022/03/04 03:32:41;;;;;;;14.63;9.40;;;;;;;3.54;100.00;95970.88;5008578;28;20214;-86
2022/03/04 03:35:09;;;;;;;16.70;10.27;;;;;;;3.54;100.00;95968.19;5015154;27;20207;-86
2022/03/04 03:37:36;;;;;;;17.40;9.70;;;;;;;3.49;100.00;95972.47;5009873;28;20227;-87
2022/03/04 03:40:05;;;;;;;19.43;10.63;;;;;;;3.50;100.00;95974.09;5014989;28;20290;-86
2022/03/04 03:42:32;;;;;;;18.13;10.70;;;;;;;3.49;100.00;95980.50;5032381;27;20237;-87
2022/03/04 03:44:59;;;;;;;15.03;8.77;;;;;;;3.39;100.00;95983.50;5018491;28;20260;-86
2022/03/04 03:47:27;;;;;;;16.73;9.97;;;;;;;3.27;100.00;95987.72;5018646;27;20210;-86
2022/03/04 03:49:55;;;;;;;17.13;10.17;;;;;;;3.27;100.00;95991.19;5022435;28;20242;-86
2022/03/04 03:52:22;;;;;;;17.43;10.50;;;;;;;3.25;100.00;95987.06;5014501;28;20298;-86
2022/03/04 03:54:50;;;;;;;17.63;10.70;;;;;;;3.27;100.00;95980.53;5010635;28;20211;-86
2022/03/04 03:57:17;;;;;;;20.67;11.40;;;;;;;3.30;100.00;95979.31;5017542;28;20206;-86
2022/03/04 03:59:44;;;;;;;19.43;10.53;;;;;;;3.38;100.00;95979.19;5037059;28;20215;-86
2022/03/04 04:02:11;;;;;;;15.77;10.03;;;;;;;3.37;100.00;95974.84;5013924;28;20298;-86
2022/03/04 04:04:39;;;;;;;19.30;10.37;;;;;;;3.37;100.00;95985.53;5013594;27;20260;-86
2022/03/04 04:07:09;;;;;;;15.03;9.50;;;;;;;3.26;100.00;95978.06;5014574;27;20255;-87
2022/03/04 04:09:37;;;;;;;16.07;9.50;;;;;;;3.28;100.00;95981.34;5014417;28;20226;-86
2022/03/04 04:12:05;;;;;;;19.37;10.47;;;;;;;3.23;100.00;95984.59;5013658;28;20250;-87
2022/03/04 04:14:32;;;;;;;16.07;9.90;;;;;;;3.25;100.00;95987.91;5014952;28;20279;-87
2022/03/04 04:17:01;;;;;;;16.43;10.30;;;;;;;3.22;100.00;95977.63;5036334;27;20302;-86
2022/03/04 04:19:28;;;;;;;18.43;10.13;;;;;;;3.26;100.00;95994.88;5011906;28;20238;-86
2022/03/04 04:21:56;;;;;;;18.47;10.67;;;;;;;3.30;100.00;95990.00;5035421;27;20213;-87
2022/03/04 04:24:24;;;;;;;18.20;10.93;;;;;;;3.29;100.00;95983.00;5036686;27;20234;-87
2022/03/04 04:26:51;;;;;;;17.83;11.07;;;;;;;3.38;100.00;95987.19;5027127;28;20214;-86
2022/03/04 04:29:19;;;;;;;20.13;11.10;;;;;;;3.34;100.00;95980.56;5017557;28;20343;-87
2022/03/04 04:31:46;;;;;;;20.73;10.67;;;;;;;3.39;100.00;95986.16;5016408;28;20207;-86
2022/03/04 04:34:13;;;;;;;20.87;11.37;;;;;;;3.35;100.00;95984.91;5030257;27;20206;-86
2022/03/04 04:36:40;;;;;;;20.30;11.07;;;;;;;3.35;100.00;95983.06;5014875;28;20241;-87
2022/03/04 04:39:07;;;;;;;17.33;10.67;;;;;;;3.37;100.00;95983.69;5016783;28;20251;-86
2022/03/04 04:41:36;;;;;;;16.00;10.80;;;;;;;3.36;100.00;95983.88;5011976;28;20224;-86
2022/03/04 04:44:04;;;;;;;18.80;10.27;;;;;;;3.46;100.00;95989.69;5016084;28;20211;-87
2022/03/04 04:46:31;;;;;;;17.50;10.50;;;;;;;3.44;100.00;95991.75;5028158;27;20199;-86
2022/03/04 04:48:58;;;;;;;18.73;10.10;;;;;;;3.41;100.00;95986.78;5011024;28;20283;-86
2022/03/04 04:51:25;;;;;;;15.67;10.20;;;;;;;3.34;100.00;95976.06;5019232;28;20302;-86
2022/03/04 04:53:53;;;;;;;17.00;10.43;;;;;;;3.35;100.00;95991.06;5017543;28;20218;-86
2022/03/04 04:56:20;;;;;;;20.07;10.43;;;;;;;3.34;100.00;95993.91;5019818;28;20210;-86
2022/03/04 04:58:49;;;;;;;17.97;10.47;;;;;;;3.27;100.00;95991.19;5017771;28;20498;-86
2022/03/04 05:01:16;;;;;;;19.83;11.57;;;;;;;3.26;100.00;95999.41;5018308;28;20248;-87
2022/03/04 05:03:44;;;;;;;20.07;10.43;;;;;;;3.24;100.00;96004.09;5030600;27;20276;-86
2022/03/04 05:06:11;;;;;;;16.60;10.80;;;;;;;3.15;100.00;95994.59;5013342;27;20214;-86
2022/03/04 05:08:38;;;;;;;15.33;10.07;;;;;;;3.21;100.00;96002.66;5025343;28;20281;-86
2022/03/04 05:11:05;;;;;;;19.70;10.43;;;;;;;3.17;100.00;95995.22;5015959;28;20203;-86
2022/03/04 05:13:32;;;;;;;17.90;10.90;;;;;;;3.20;100.00;96006.34;5015418;28;20219;-86
2022/03/04 05:16:01;;;;;;;20.90;11.40;;;;;;;3.18;100.00;96000.38;5026073;27;20206;-86
2022/03/04 05:18:28;;;;;;;17.93;10.93;;;;;;;3.21;100.00;95991.16;5008397;28;20229;-86
2022/03/04 05:20:55;;;;;;;17.00;10.43;;;;;;;3.17;100.00;96004.03;5016885;27;20216;-85
2022/03/04 05:26:06;;;;;;;17.13;10.30;;;;;;;3.12;100.00;95995.81;5030695;27;20220;-86
2022/03/04 05:28:34;;;;;;;19.70;10.77;;;;;;;3.11;100.00;95996.00;5034626;27;20230;-86
2022/03/04 05:31:02;;;;;;;19.63;11.20;;;;;;;3.09;100.00;96000.69;5014984;28;20207;-86
2022/03/04 05:33:29;;;;;;;30.43;13.60;;;;;;;2.96;100.00;95999.56;5017849;27;20206;-86
2022/03/04 05:35:57;;;;;;;25.70;14.87;;;;;;;2.92;100.00;95998.28;5018338;28;20309;-86
2022/03/04 05:38:24;;;;;;;24.10;13.33;;;;;;;2.88;100.00;95994.38;5019285;28;20235;-86
2022/03/04 05:40:51;;;;;;;21.47;12.33;;;;;;;2.91;100.00;96012.63;5010136;28;20203;-86
2022/03/04 05:43:18;;;;;;;26.80;12.97;;;;;;;2.82;100.00;96008.44;5015133;28;20230;-86
2022/03/04 05:45:45;;;;;;;22.83;13.17;;;;;;;2.83;100.00;96007.44;5013578;28;20279;-86
2022/03/04 05:48:14;;;;;;;23.00;13.03;;;;;;;2.79;100.00;96008.84;5019238;28;20310;-86
2022/03/04 05:50:41;;;;;;;15.50;10.60;;;;;;;2.72;100.00;96013.28;5011056;28;20294;-87
2022/03/04 05:53:08;;;;;;;19.30;12.00;;;;;;;2.70;100.00;96006.50;5009495;28;20270;-86
2022/03/04 05:55:36;;;;;;;25.63;12.67;;;;;;;2.67;100.00;96015.69;5025168;28;20210;-86
2022/03/04 05:58:03;;;;;;;23.37;12.67;;;;;;;2.65;100.00;96015.03;5020363;28;20202;-86
2022/03/04 06:00:30;;;;;;;19.93;11.50;;;;;;;2.64;100.00;96016.03;5011495;28;20312;-86
2022/03/04 06:02:57;;;;;;;20.57;11.67;;;;;;;2.62;100.00;96029.59;5009647;28;20279;-86
2022/03/04 06:05:25;;;;;;;19.20;11.53;;;;;;;2.63;100.00;96022.41;5013170;28;20234;-86
2022/03/04 06:07:52;;;;;;;21.50;11.80;;;;;;;2.68;100.00;96033.34;5027659;28;20290;-86
2022/03/04 06:10:19;;;;;;;22.27;11.93;;;;;;;2.63;100.00;96035.75;5014403;28;20298;-87
2022/03/04 06:12:46;;;;;;;23.07;11.83;;;;;;;2.65;100.00;96047.03;5051083;28;20302;-87
2022/03/04 06:15:14;;;;;;;18.97;11.33;;;;;;;2.65;100.00;96041.69;5029372;28;20214;-86
2022/03/04 06:17:46;;;;;;;20.00;12.00;;;;;;;2.67;100.00;96058.34;5032967;27;20294;-86
2022/03/04 06:20:14;;;;;;;19.60;12.20;;;;;;;2.68;100.00;96049.31;5013542;28;20291;-86
2022/03/04 06:22:43;;;;;;;20.87;12.10;;;;;;;2.73;100.00;96056.75;5013378;28;20206;-85
2022/03/04 06:25:10;;;;;;;20.93;12.03;;;;;;;2.77;100.00;96053.53;5013595;28;20199;-85
2022/03/04 06:27:38;;;;;;;23.40;13.10;;;;;;;2.87;100.00;96058.56;5015990;28;20265;-86
2022/03/04 06:30:06;;;;;;;21.57;13.13;;;;;;;2.87;100.00;96055.88;5016063;28;20230;-86
2022/03/04 06:32:33;;;;;;;23.03;13.13;;;;;;;2.89;100.00;96057.31;5027665;28;20207;-86
2022/03/04 06:35:00;;;;;;;21.63;12.70;;;;;;;2.86;100.00;96063.06;5016721;28;20214;-86
2022/03/04 06:37:27;;;;;;;25.17;13.00;;;;;;;2.84;100.00;96065.09;5015981;28;20222;-86
2022/03/04 06:39:56;;;;;;;22.70;13.03;;;;;;;2.82;100.00;96061.78;5022038;28;20601;-86
2022/03/04 06:42:23;;;;;;;18.70;11.33;;;;;;;2.71;100.00;96053.47;5018520;27;20194;-86
2022/03/04 06:44:50;;;;;;;19.83;11.80;;;;;;;2.62;100.00;96066.06;5030725;28;20237;-85
2022/03/04 06:47:17;;;;;;;20.30;11.70;;;;;;;2.57;100.00;96063.13;5012398;28;20203;-85
2022/03/04 06:49:44;;;;;;;22.73;12.17;;;;;;;2.61;100.00;96069.75;5010260;27;20253;-87
2022/03/04 06:52:11;;;;;;;23.13;13.13;;;;;;;2.62;100.00;96066.06;5022663;27;20310;-85
2022/03/04 06:54:39;;;;;;;24.17;13.13;;;;;;;2.66;100.00;96067.34;5023479;27;20214;-86
2022/03/04 06:57:07;;;;;;;22.17;12.57;;;;;;;2.70;100.00;96068.63;5047631;27;20203;-86
2022/03/04 06:59:35;;;;;;;24.07;13.17;;;;;;;2.65;100.00;96079.84;5017172;27;20233;-86
2022/03/04 07:02:02;;;;;;;20.23;12.50;;;;;;;2.61;100.00;96069.75;5016778;27;20218;-86
2022/03/04 07:04:29;;;;;;;22.47;12.53;;;;;;;2.66;100.00;96064.66;5023175;28;20207;-86
2022/03/04 07:06:56;;;;;;;22.83;12.80;;;;;;;2.62;100.00;96074.06;5014902;28;20219;-86
2022/03/04 07:09:24;;;;;;;20.83;11.97;;;;;;;2.58;100.00;96068.28;5009981;28;20227;-86
2022/03/04 07:11:51;;;;;;;21.07;12.63;;;;;;;2.65;100.00;96081.69;5020789;28;20215;-86
2022/03/04 07:14:19;;;;;;;22.67;13.03;;;;;;;2.64;100.00;96072.03;5014081;28;20203;-85
2022/03/04 07:16:46;;;;;;;21.27;12.63;;;;;;;2.61;100.00;96069.75;5014403;28;20207;-86
2022/03/04 07:19:13;;;;;;;24.17;13.37;;;;;;;2.59;100.00;96077.09;5013117;28;20274;-86
2022/03/04 07:21:40;;;;;;;23.97;12.70;;;;;;;2.58;100.00;96083.44;5016660;28;20234;-85
2022/03/04 07:24:07;;;;;;;22.83;12.73;;;;;;;2.53;100.00;96093.84;5023318;28;20241;-85
2022/03/04 07:26:34;;;;;;;21.23;13.57;;;;;;;2.49;100.00;96089.91;5037116;27;20248;-85
2022/03/04 07:29:01;;;;;;;22.07;12.80;;;;;;;2.47;100.00;96090.06;5016743;28;20214;-86
2022/03/04 07:31:30;;;;;;;21.10;12.70;;;;;;;2.51;100.00;96087.88;5013657;28;20292;-86
2022/03/04 07:33:57;;;;;;;23.40;13.20;;;;;;;2.51;100.00;96091.38;5047030;27;20210;-86
2022/03/04 07:36:26;;;;;;;22.57;12.93;;;;;;;2.56;100.00;96098.78;5025028;27;20244;-85
2022/03/04 07:38:55;;;;;;;21.97;13.03;;;;;;;2.54;100.00;96093.66;5064874;27;20238;-86
2022/03/04 07:41:22;;;;;;;23.83;12.57;;;;;;;2.54;100.00;96096.34;5015294;27;20210;-86
2022/03/04 07:43:50;;;;;;;21.00;12.47;;;;;;;2.52;100.00;96101.03;5026751;27;20218;-86
2022/03/04 07:46:17;;;;;;;21.00;13.10;;;;;;;2.53;100.00;96104.50;5059840;27;20224;-86
2022/03/04 07:48:46;;;;;;;23.50;13.30;;;;;;;2.58;100.00;96102.09;5026259;27;20211;-85
2022/03/04 07:51:13;;;;;;;22.57;13.03;;;;;;;2.58;100.00;96104.75;5009892;28;20209;-85
2022/03/04 07:53:40;;;;;;;25.07;14.33;;;;;;;2.55;100.00;96092.63;5010255;28;20289;-85
2022/03/04 07:56:08;;;;;;;19.17;13.17;;;;;;;2.57;100.00;96106.59;5022166;28;20228;-85
2022/03/04 07:58:35;;;;;;;22.60;12.97;;;;;;;2.61;100.00;96107.06;5028634;28;20210;-86
2022/03/04 08:01:03;;;;;;;24.17;13.60;;;;;;;2.68;100.00;96113.31;5022873;27;20224;-85
2022/03/04 08:03:30;;;;;;;24.70;14.13;;;;;;;2.76;100.00;96121.19;5030345;27;20205;-86
2022/03/04 08:05:59;;;;;;;24.17;14.00;;;;;;;2.76;100.00;96115.84;5022247;28;20241;-86
2022/03/04 08:08:26;;;;;;;28.83;15.93;;;;;;;2.76;100.00;96117.69;5018759;27;20210;-85
2022/03/04 08:10:54;;;;;;;26.27;15.63;;;;;;;2.76;100.00;96120.34;5013003;28;20230;-85
2022/03/04 08:13:21;;;;;;;30.63;15.57;;;;;;;2.76;100.00;96117.69;5019989;28;20298;-86
2022/03/04 08:15:49;;;;;;;27.47;15.03;;;;;;;2.79;100.00;96117.34;5012554;28;20238;-86
2022/03/04 08:18:16;;;;;;;23.50;14.20;;;;;;;2.86;100.00;96127.06;5012704;28;20222;-85
2022/03/04 08:20:43;;;;;;;23.07;13.57;;;;;;;2.93;100.00;96130.63;5018600;28;20222;-85
2022/03/04 08:23:12;;;;;;;26.57;14.20;;;;;;;3.01;100.00;96113.66;5021703;28;20231;-86
2022/03/04 08:25:40;;;;;;;23.90;14.00;;;;;;;3.09;100.00;96112.72;5021172;28;20298;-85
2022/03/04 08:28:07;;;;;;;30.80;15.43;;;;;;;3.12;100.00;96115.84;5013344;27;20210;-86
2022/03/04 08:30:34;;;;;;;23.50;14.23;;;;;;;3.14;100.00;96113.00;5019792;28;20226;-86
2022/03/04 08:33:02;;;;;;;24.17;14.30;;;;;;;3.18;100.00;96119.59;5011665;28;20215;-86
2022/03/04 08:35:29;;;;;;;25.10;15.07;;;;;;;3.21;100.00;96124.56;5018533;28;20275;-85
2022/03/04 08:37:56;;;;;;;26.90;16.20;;;;;;;3.27;100.00;96131.78;5017418;28;20255;-86
2022/03/04 08:40:24;;;;;;;33.30;18.00;;;;;;;3.19;100.00;96129.25;5024081;28;20317;-85
2022/03/04 08:42:51;;;;;;;32.07;18.37;;;;;;;3.10;100.00;96123.22;5035959;27;20240;-85
2022/03/04 08:45:19;;;;;;;33.97;17.37;;;;;;;3.20;100.00;96129.06;5023407;28;20289;-85
2022/03/04 08:47:47;;;;;;;28.73;17.27;;;;;;;3.31;100.00;96125.91;5008790;28;20214;-85
2022/03/04 08:50:16;;;;;;;27.40;16.73;;;;;;;3.48;100.00;96126.47;5014764;28;20239;-86
2022/03/04 08:52:43;;;;;;;25.80;16.43;;;;;;;3.61;100.00;96121.22;5019381;28;20206;-85
2022/03/04 08:55:14;;;;;;;30.83;17.33;;;;;;;3.76;100.00;96121.97;5020123;28;20203;-85
2022/03/04 08:57:43;;;;;;;36.00;16.60;;;;;;;3.97;100.00;96122.97;5012217;28;20222;-86
2022/03/04 09:00:12;;;;;;;31.37;16.83;;;;;;;4.11;100.00;96119.34;5014100;28;20222;-86
2022/03/04 09:02:39;;;;;;;31.43;17.13;;;;;;;4.21;100.00;96117.16;5019063;28;20298;-86
2022/03/04 09:05:07;;;;;;;28.93;16.37;;;;;;;4.33;100.00;96115.59;5008855;28;20226;-86
2022/03/04 09:07:35;;;;;;;28.03;16.20;;;;;;;4.45;100.00;96119.34;5017507;28;20210;-85
2022/03/04 09:10:04;;;;;;;25.30;15.77;;;;;;;4.53;100.00;96110.34;5018593;28;20218;-86
2022/03/04 09:12:32;;;;;;;27.40;16.37;;;;;;;4.61;97.79;96112.00;5007783;28;20210;-86
2022/03/04 09:15:01;;;;;;;28.10;17.07;;;;;;;4.64;97.06;96104.44;5009328;28;20302;-86
2022/03/04 09:17:28;;;;;;;27.47;17.43;;;;;;;4.75;96.06;96113.75;5010246;27;20325;-86
2022/03/04 09:19:55;;;;;;;28.73;17.50;;;;;;;4.82;95.61;96098.53;5012860;28;20217;-86
2022/03/04 09:22:22;;;;;;;26.83;16.07;;;;;;;4.94;95.08;96102.25;5017481;28;20210;-86
2022/03/04 09:24:50;;;;;;;25.00;15.57;;;;;;;4.96;95.08;96108.25;5009524;28;20275;-86
2022/03/04 09:27:17;;;;;;;28.83;16.43;;;;;;;4.99;93.84;96105.19;5051532;28;20211;-86
2022/03/04 09:29:45;;;;;;;29.93;16.77;;;;;;;5.04;94.31;96107.22;5013658;28;20305;-86
2022/03/04 09:32:14;;;;;;;36.90;17.97;;;;;;;5.11;94.00;96103.53;5018841;28;20210;-86
2022/03/04 09:34:41;;;;;;;32.23;16.50;;;;;;;5.23;93.13;96104.63;5024795;28;20222;-86
2022/03/04 09:37:09;;;;;;;35.33;17.47;;;;;;;5.58;94.84;96107.13;5017990;28;20213;-86
2022/03/04 09:39:36;;;;;;;35.23;17.63;;;;;;;5.58;89.86;96105.28;5019679;28;20258;-86
2022/03/04 09:42:04;;;;;;;32.63;17.30;;;;;;;5.63;89.67;96110.84;5026669;28;20234;-86
2022/03/04 09:44:31;;;;;;;29.23;17.47;;;;;;;5.76;88.87;96103.84;5016221;28;20214;-86
2022/03/04 09:47:00;;;;;;;28.30;17.57;;;;;;;5.72;88.89;96106.09;5018204;27;20207;-86
2022/03/04 09:49:36;;;;;;;33.87;19.10;;;;;;;5.87;88.01;96100.56;5015874;27;20213;-85
2022/03/04 09:52:04;;;;;;;29.33;18.03;;;;;;;5.97;87.97;96101.81;5010097;28;20293;-86
2022/03/04 09:54:32;;;;;;;34.17;19.07;;;;;;;6.13;86.42;96099.72;5019365;28;20278;-86
2022/03/04 09:57:00;;;;;;;30.00;18.60;;;;;;;6.26;86.05;96102.38;5021856;28;20215;-86
2022/03/04 09:59:27;;;;;;;29.90;18.53;;;;;;;6.29;86.29;96093.94;5020130;28;20417;-85
2022/03/04 10:01:58;;;;;;;31.63;18.37;;;;;;;6.40;84.43;96098.63;5010831;28;20207;-86
2022/03/04 10:04:28;;;;;;;28.70;18.70;;;;;;;6.43;84.06;96092.88;5023635;28;20218;-86
2022/03/04 10:06:56;;;;;;;30.23;17.87;;;;;;;6.53;83.98;96092.44;5017763;28;20215;-86
2022/03/04 10:09:43;;;;;;;37.43;18.03;;;;;;;6.61;84.38;96089.50;5008137;28;20299;-86
2022/03/04 10:12:11;;;;;;;28.23;17.23;;;;;;;6.64;81.67;96083.69;5045098;27;20212;-86
2022/03/04 10:14:57;;;;;;;30.97;18.10;;;;;;;6.58;82.07;96079.19;5017600;27;20228;-86
2022/03/04 10:17:25;;;;;;;27.87;17.43;;;;;;;6.67;82.19;96073.38;5022725;28;20230;-86
2022/03/04 10:19:54;;;;;;;31.50;17.83;;;;;;;6.85;81.16;96091.47;5014881;27;20299;-86
2022/03/04 10:22:22;;;;;;;27.47;18.00;;;;;;;6.99;80.17;96084.16;5021500;27;20376;-86
2022/03/04 10:24:50;;;;;;;29.10;17.93;;;;;;;7.09;78.83;96097.97;5015806;28;20287;-86
2022/03/04 10:27:20;;;;;;;30.73;18.83;;;;;;;7.08;77.60;96089.09;5015632;28;20203;-85
2022/03/04 10:29:48;;;;;;;29.53;17.40;;;;;;;7.21;77.88;96088.19;5029441;28;20222;-87
2022/03/04 10:32:19;;;;;;;32.97;19.67;;;;;;;7.18;77.14;96088.63;5019890;28;20298;-86
2022/03/04 10:34:52;;;;;;;30.67;19.60;;;;;;;7.31;77.98;96085.03;5022116;27;20238;-85
2022/03/04 10:37:22;;;;;;;26.70;17.83;;;;;;;7.50;75.15;96084.91;5014749;27;20221;-85
2022/03/04 10:40:05;;;;;;;33.03;19.40;;;;;;;7.51;74.96;96085.72;5015352;28;20218;-86
2022/03/04 10:42:50;;;;;;;27.67;18.13;;;;;;;7.44;74.27;96077.72;5013080;27;20206;-85
2022/03/04 10:45:20;;;;;;;27.57;17.83;;;;;;;7.51;74.27;96061.53;5016730;27;20203;-87
2022/03/04 10:47:50;;;;;;;31.63;19.17;;;;;;;7.90;72.49;96074.69;5012533;28;20210;-86
2022/03/04 10:50:20;;;;;;;33.27;19.43;;;;;;;7.90;72.12;96065.78;5013365;28;20283;-86
2022/03/04 10:52:59;;;;;;;33.57;18.90;;;;;;;8.13;69.15;96065.97;5047948;27;20206;-86
2022/03/04 10:55:36;;;;;;;32.23;19.13;;;;;;;8.22;68.31;96061.97;5021739;28;20202;-87
2022/03/04 10:58:06;;;;;;;30.30;19.47;;;;;;;8.35;68.53;96064.53;5026821;28;20203;-87
2022/03/04 11:00:35;;;;;;;29.20;18.53;;;;;;;8.41;65.86;96065.53;5023148;28;20203;-85
2022/03/04 11:03:03;;;;;;;35.43;18.33;;;;;;;8.31;65.20;96055.28;5029942;28;20234;-86
2022/03/04 11:05:30;;;;;;;30.47;17.63;;;;;;;8.56;63.40;96049.00;5019063;28;20206;-86
2022/03/04 11:07:59;;;;;;;26.97;17.47;;;;;;;8.65;62.59;96056.56;5023470;28;20203;-87
2022/03/04 11:10:27;;;;;;;29.43;17.60;;;;;;;8.80;61.97;96053.47;5019175;28;20223;-86
2022/03/04 11:12:55;;;;;;;26.87;18.03;;;;;;;8.85;63.29;96053.59;5022339;28;20233;-87
2022/03/04 11:15:24;;;;;;;27.70;17.30;;;;;;;9.23;59.40;96053.31;5018044;28;20214;-86
2022/03/04 11:17:52;;;;;;;25.53;16.40;;;;;;;9.19;58.99;96053.97;5026840;27;20215;-87
2022/03/04 11:20:20;;;;;;;27.60;17.33;;;;;;;9.42;58.61;96051.38;5024736;27;20244;-87
2022/03/04 11:22:52;;;;;;;26.70;16.90;;;;;;;9.67;58.36;96053.91;5021940;28;20252;-86
2022/03/04 11:25:39;;;;;;;24.33;15.67;;;;;;;9.75;56.37;96037.38;5023414;28;20211;-86
2022/03/04 11:28:13;;;;;;;25.10;16.27;;;;;;;9.55;55.35;96040.41;5023991;28;20207;-86
2022/03/04 11:30:44;;;;;;;24.63;16.67;;;;;;;9.63;56.71;96042.75;5010851;27;20233;-87